• pl
  • eng

Awiacja
Kliknij na pogrubioną czerwoną nazwę, aby odkodować depeszę. 12:01 19.10.2018
  • WIND
  • SIGNIFICANT EURO
  • SIGNIFICANT
  • SIGMET
  • AIRMET
  • TAF FC
  • TAF FT
  • METAR GG30
  • METAR GG00


METAR EPBY 191000Z 04008KT 9999 BKN037 14/07 Q1024 =

METAR EPGD 191000Z 01006KT 300V050 CAVOK 13/05 Q1024 =

METAR EPKK 191000Z 26008KT 230V290 2500 BR OVC005 12/11 Q1022 =

METAR EPKT 191000Z 30004KT 260V330 1300 R27/1500U BR OVC002 09/08
Q1023 =

METAR EPLB 191000Z 29006KT 5000 BR NSC 15/11 Q1020 =

METAR EPLL 191000Z 32007KT 280V350 2400 BR OVC002 09/09 Q1023 =

METAR EPMO 191000Z 01007KT 340V040 5000 BR OVC010 13/10 Q1023 =

METAR EPPO 191000Z VRB01KT 1800 -DZ BR OVC003 12/12 Q1024 =

METAR EPRA 191000Z NIL=

METAR EPRZ 191000Z NIL=

METAR EPSC 191000Z 28005KT 9999 FEW003 BKN005 11/11 Q1025 =

METAR EPSY 191000Z 36010KT 9999 FEW020 14/07 Q1022 =

METAR EPWA 191000Z 33009KT 4500 BR BKN005 11/09 Q1022 BECMG 5000=

METAR EPWR 191000Z 35004KT 310V020 3000 BR SCT003 OVC004 11/11 Q1024
=

METAR EPZG 191000Z 28004KT 260V320 5000 BR OVC006 12/11 Q1025 =
Awiacja.imgw.pl jest pogodowym serwisem informacyjnym
Instytutu Meteorologii i Gospodarki Wodnej Państwowego Instytutu Badawczego.
Copyright IMGW PIB 2009-2011© Wszelkie prawa zastrzeżone.